This is the latest recevied weather packets stored in our database for station/object KD5FHA. If no packets are shown the sender has not sent any weather packets the latest 1 day(s).
| Time | Temp. | Humidity | Pressure | Rain* | Wind** | Luminosity | Snow |
|---|---|---|---|---|---|---|---|
| 1778055642 | 16.67° C | 76% | 1010.5 hPa | 0 mm | 2.68 m/s, 13° | 0 W/m² | - |
| 1778055340 | 16.67° C | 76% | 1010.3 hPa | 0 mm | 1.79 m/s, 32° | 0 W/m² | - |
| 1778055037 | 16.67° C | 77% | 1010.2 hPa | 0 mm | 1.79 m/s, 21° | 0 W/m² | - |
| 1778054735 | 16.67° C | 76% | 1010 hPa | 0 mm | 2.24 m/s, 36° | 0 W/m² | - |
| 1778054432 | 17.22° C | 76% | 1009.8 hPa | 0 mm | 2.68 m/s, 33° | 0 W/m² | - |
| 1778054130 | 17.22° C | 76% | 1009.9 hPa | 0 mm | 0.89 m/s, 38° | 0 W/m² | - |
| 1778053826 | 17.22° C | 76% | 1009.6 hPa | 0 mm | 0.89 m/s, 98° | 0 W/m² | - |
| 1778053523 | 17.22° C | 76% | 1010 hPa | 0 mm | 2.24 m/s, 24° | 0 W/m² | - |
| 1778053220 | 17.22° C | 76% | 1010.2 hPa | 0 mm | 1.34 m/s, 37° | 0 W/m² | - |
| 1778052918 | 17.22° C | 77% | 1010.1 hPa | 0 mm | 0.89 m/s, 36° | 0 W/m² | - |
| 1778052615 | 17.22° C | 76% | 1010 hPa | 0 mm | 0.89 m/s, 56° | 0 W/m² | - |
| 1778052312 | 17.22° C | 76% | 1010.1 hPa | 0 mm | 2.24 m/s, 5° | 0 W/m² | - |
| 1778052010 | 17.78° C | 76% | 1010.3 hPa | 0 mm | 1.79 m/s, 17° | 0 W/m² | - |
| 1778051715 | 17.78° C | 76% | 1010 hPa | 0 mm | 1.34 m/s, 60° | 0 W/m² | - |
| 1778051405 | 17.78° C | 76% | 1010.2 hPa | 0 mm | 0.89 m/s, 33° | 0 W/m² | - |
| 1778051102 | 17.78° C | 76% | 1010.2 hPa | 0 mm | 1.34 m/s, 23° | 0 W/m² | - |
| 1778050799 | 17.78° C | 76% | 1010.2 hPa | 0 mm | 1.79 m/s, 21° | 0 W/m² | - |
| 1778050497 | 17.78° C | 76% | 1010.2 hPa | 0 mm | 0.89 m/s, 17° | 0 W/m² | - |
| 1778050193 | 17.78° C | 76% | 1010.2 hPa | 0 mm | 1.79 m/s, 24° | 0 W/m² | - |
| 1778049890 | 17.78° C | 76% | 1009.9 hPa | 0 mm | 2.68 m/s, 24° | 0 W/m² | - |
| 1778049586 | 17.78° C | 76% | 1009.9 hPa | 0 mm | 2.68 m/s, 26° | 0 W/m² | - |
| 1778049283 | 17.78° C | 76% | 1009.9 hPa | 0 mm | 2.68 m/s, 25° | 0 W/m² | - |
| 1778048981 | 17.78° C | 76% | 1010.2 hPa | 0 mm | 1.34 m/s, 5° | 0 W/m² | - |
| 1778048679 | 17.78° C | 76% | 1010.1 hPa | 0 mm | 0.89 m/s, 72° | 0 W/m² | - |
| 1778048375 | 17.78° C | 76% | 1010.1 hPa | 0 mm | 1.79 m/s, 43° | 0 W/m² | - |
* Rain latest hour (hover to see other rain measurements)
** Current wind speed in m/s (hover to see current wind gust speed)